createdAt,value
2023-04-27T00:01:48.694Z,97785.13
2023-04-27T00:05:53.411Z,97780.41
2023-04-27T00:09:56.634Z,97775.66
2023-04-27T00:14:00.352Z,97773.22
2023-04-27T00:18:05.484Z,97771.50
2023-04-27T00:22:09.100Z,97774.75
2023-04-27T00:26:12.890Z,97771.75
2023-04-27T00:30:16.855Z,97764.38
2023-04-27T00:34:21.497Z,97768.91
2023-04-27T00:38:25.635Z,97768.22
2023-04-27T00:42:29.058Z,97764.97
2023-04-27T00:46:33.093Z,97760.06
2023-04-27T00:50:38.865Z,97757.59
2023-04-27T00:54:42.625Z,97768.75
2023-04-27T00:58:48.548Z,97761.94
2023-04-27T01:02:54.427Z,97759.34
2023-04-27T01:06:59.765Z,97760.31
2023-04-27T01:11:03.590Z,97758.66
2023-04-27T01:15:08.572Z,97758.66
2023-04-27T01:19:12.360Z,97765.78
2023-04-27T01:23:19.376Z,97754.59
2023-04-27T01:27:23.135Z,97765.09
2023-04-27T01:31:26.584Z,97770.13
2023-04-27T01:35:30.027Z,97767.53
2023-04-27T01:39:35.443Z,97767.41
2023-04-27T01:43:38.808Z,97774.22
2023-04-27T01:47:43.200Z,97779.41
2023-04-27T01:51:46.503Z,97778.59
2023-04-27T01:59:54.926Z,97781.06
2023-04-27T02:03:58.477Z,97782.69
2023-04-27T02:08:02.922Z,97784.31
2023-04-27T02:12:08.605Z,97779.97
2023-04-27T02:16:11.978Z,97783.38
2023-04-27T02:20:15.579Z,97792.09
2023-04-27T02:24:19.296Z,97787.75
2023-04-27T02:28:24.378Z,97787.88
2023-04-27T02:32:28.561Z,97795.78
2023-04-27T02:36:32.603Z,97790.59
2023-04-27T02:40:35.586Z,97788.28
2023-04-27T02:44:41.227Z,97798.50
2023-04-27T02:48:44.998Z,97796.88
2023-04-27T02:52:48.199Z,97802.06
2023-04-27T02:56:52.372Z,97790.06
2023-04-27T03:00:58.955Z,97789.09
2023-04-27T03:05:02.476Z,97788.41
2023-04-27T03:09:06.390Z,97780.78
2023-04-27T03:13:10.606Z,97787.75
2023-04-27T03:17:15.073Z,97786.22
2023-04-27T03:21:18.550Z,97793.34
2023-04-27T03:25:22.677Z,97792.25
2023-04-27T03:29:26.268Z,97784.34
2023-04-27T03:33:31.024Z,97788.69
2023-04-27T03:37:34.694Z,97788.97
2023-04-27T03:41:38.479Z,97790.06
2023-04-27T03:45:42.084Z,97796.19
2023-04-27T03:49:47.807Z,97791.94
2023-04-27T03:53:51.262Z,97804.25
2023-04-27T03:57:57.457Z,97808.72
2023-04-27T04:02:01.449Z,97813.91
2023-04-27T04:06:07.141Z,97811.31
2023-04-27T04:10:11.729Z,97821.69
2023-04-27T04:14:15.302Z,97820.84
2023-04-27T04:18:20.282Z,97823.31
2023-04-27T04:22:27.778Z,97826.59
2023-04-27T04:26:32.612Z,97829.88
2023-04-27T04:30:36.328Z,97831.25
2023-04-27T04:34:40.284Z,97836.16
2023-04-27T04:38:45.311Z,97843.38
2023-04-27T04:42:48.629Z,97841.22
2023-04-27T04:46:53.692Z,97841.34
2023-04-27T04:50:57.495Z,97838.91
2023-04-27T04:55:02.083Z,97843.25
2023-04-27T04:59:05.259Z,97840.13
2023-04-27T05:03:08.687Z,97855.28
2023-04-27T05:07:14.916Z,97856.09
2023-04-27T05:11:20.431Z,97856.88
2023-04-27T05:15:23.774Z,97864.50
2023-04-27T05:19:27.703Z,97865.97
2023-04-27T05:23:30.958Z,97870.75
2023-04-27T05:27:36.058Z,97875.47
2023-04-27T05:31:39.445Z,97884.72
2023-04-27T05:35:43.439Z,97885.22
2023-04-27T05:39:48.825Z,97890.94
2023-04-27T05:43:53.711Z,97885.41
2023-04-27T05:47:57.357Z,97876.44
2023-04-27T05:52:01.598Z,97880.06
2023-04-27T05:56:07.333Z,97884.16
2023-04-27T06:00:13.979Z,97891.34
2023-04-27T06:04:17.767Z,97890.09
2023-04-27T06:08:20.988Z,97896.44
2023-04-27T06:12:24.784Z,97893.25
2023-04-27T06:16:30.113Z,97896.81
2023-04-27T06:20:35.781Z,97887.44
2023-04-27T06:24:40.292Z,97895.41
2023-04-27T06:28:43.414Z,97898.06
2023-04-27T06:32:48.817Z,97902.34
2023-04-27T06:36:52.695Z,97902.59
2023-04-27T06:40:55.973Z,97901.63
2023-04-27T06:45:01.619Z,97897.88
2023-04-27T06:49:07.006Z,97905.81
2023-04-27T06:53:10.746Z,97903.31
2023-04-27T06:57:15.470Z,97903.19
2023-04-27T07:01:19.100Z,97900.03
2023-04-27T07:05:23.661Z,97900.16
2023-04-27T07:09:28.102Z,97892.09
2023-04-27T07:13:32.440Z,97897.84
2023-04-27T07:17:36.525Z,97899.84
2023-04-27T07:21:41.863Z,97897.44
2023-04-27T07:25:45.870Z,97893.66
2023-04-27T07:29:49.304Z,97900.66
2023-04-27T07:33:53.361Z,97904.41
2023-04-27T07:37:58.396Z,97898.78
2023-04-27T07:42:03.650Z,97897.50
2023-04-27T07:46:07.224Z,97901.53
2023-04-27T07:50:12.933Z,97912.84
2023-04-27T07:54:17.484Z,97910.63
2023-04-27T07:58:22.040Z,97915.22
2023-04-27T08:02:25.573Z,97912.84
2023-04-27T08:06:30.078Z,97914.56
2023-04-27T08:10:34.866Z,97917.28
2023-04-27T08:14:38.152Z,97921.16
2023-04-27T08:18:41.356Z,97920.31
2023-04-27T08:22:45.119Z,97918.69
2023-04-27T08:26:50.086Z,97919.78
2023-04-27T08:30:53.228Z,97919.00
2023-04-27T08:34:57.302Z,97920.13
2023-04-27T08:39:00.513Z,97924.38
2023-04-27T08:43:10.651Z,97922.72
2023-04-27T08:47:13.936Z,97929.38
2023-04-27T08:51:18.828Z,97926.66
2023-04-27T08:55:22.520Z,97916.84
2023-04-27T08:59:27.964Z,97914.31
2023-04-27T09:03:31.485Z,97915.69
2023-04-27T09:07:35.044Z,97913.00
2023-04-27T09:11:39.487Z,97912.38
2023-04-27T09:15:48.407Z,97908.25
2023-04-27T09:19:51.885Z,97906.84
2023-04-27T09:23:56.443Z,97900.50
2023-04-27T09:28:01.295Z,97898.72
2023-04-27T09:32:17.843Z,97896.56
2023-04-27T09:36:22.236Z,97885.63
2023-04-27T09:40:28.645Z,97889.81
2023-04-27T09:44:32.951Z,97883.66
2023-04-27T09:48:40.852Z,97884.81
2023-04-27T09:52:44.307Z,97888.78
2023-04-27T09:57:03.043Z,97883.34
2023-04-27T10:01:16.478Z,97883.34
2023-04-27T10:05:44.276Z,97873.75
2023-04-27T10:09:49.581Z,97872.50
2023-04-27T10:13:54.841Z,97872.25
2023-04-27T10:18:05.866Z,97879.91
2023-04-27T10:22:10.706Z,97883.09
2023-04-27T10:26:14.743Z,97877.91
2023-04-27T10:30:52.508Z,97856.66
2023-04-27T10:35:06.698Z,97863.41
2023-04-27T10:39:19.168Z,97859.09
2023-04-27T10:43:27.058Z,97851.66
2023-04-27T10:47:39.537Z,97837.25
2023-04-27T10:51:42.958Z,97845.25
2023-04-27T10:55:50.191Z,97842.53
2023-04-27T10:59:55.702Z,97834.97
2023-04-27T11:03:59.884Z,97839.41
2023-04-27T11:08:07.472Z,97832.56
2023-04-27T11:12:15.136Z,97841.97
2023-04-27T11:16:20.907Z,97844.25
2023-04-27T11:20:26.882Z,97839.56
2023-04-27T11:24:30.073Z,97834.56
2023-04-27T11:28:34.940Z,97834.09
2023-04-27T11:32:38.121Z,97827.28
2023-04-27T11:36:41.667Z,97827.75
2023-04-27T11:40:45.095Z,97823.16
2023-04-27T11:44:56.718Z,97834.97
2023-04-27T11:49:04.223Z,97831.84
2023-04-27T11:53:08.048Z,97831.50
2023-04-27T11:57:11.971Z,97826.41
2023-04-27T12:01:27.542Z,97826.66
2023-04-27T12:05:37.623Z,97829.06
2023-04-27T12:13:50.305Z,97826.66
2023-04-27T12:17:54.751Z,97821.56
2023-04-27T12:21:59.533Z,97820.41
2023-04-27T12:26:03.144Z,97814.88
2023-04-27T12:30:09.194Z,97819.81
2023-04-27T12:34:13.991Z,97815.91
2023-04-27T12:38:17.574Z,97820.28
2023-04-27T12:42:24.557Z,97815.63
2023-04-27T12:46:27.981Z,97815.78
2023-04-27T12:50:32.946Z,97819.47
2023-04-27T12:54:37.475Z,97812.03
2023-04-27T12:58:42.186Z,97816.94
2023-04-27T13:02:46.822Z,97813.25
2023-04-27T13:06:51.476Z,97805.28
2023-04-27T13:10:55.156Z,97809.75
2023-04-27T13:14:58.172Z,97804.22
2023-04-27T13:19:01.578Z,97802.41
2023-04-27T13:23:06.696Z,97809.56
2023-04-27T13:27:10.321Z,97805.31
2023-04-27T13:31:13.775Z,97806.91
2023-04-27T13:35:17.473Z,97802.53
2023-04-27T13:39:22.498Z,97802.97
2023-04-27T13:43:27.792Z,97801.94
2023-04-27T13:47:36.845Z,97800.91
2023-04-27T13:51:41.927Z,97799.72
2023-04-27T13:55:46.912Z,97796.09
2023-04-27T13:59:50.317Z,97794.66
2023-04-27T14:03:53.725Z,97791.91
2023-04-27T14:07:58.275Z,97794.31
2023-04-27T14:12:03.204Z,97789.56
2023-04-27T14:16:10.065Z,97788.09
2023-04-27T14:20:13.832Z,97767.56
2023-04-27T14:24:17.726Z,97775.41
2023-04-27T14:28:24.122Z,97780.25
2023-04-27T14:32:29.812Z,97772.06
2023-04-27T14:36:33.503Z,97771.59
2023-04-27T14:40:37.104Z,97774.03
2023-04-27T14:44:42.046Z,97768.91
2023-04-27T14:48:46.808Z,97770.56
2023-04-27T14:52:49.990Z,97775.63
2023-04-27T14:56:54.475Z,97772.50
2023-04-27T15:00:59.382Z,97773.28
2023-04-27T15:05:03.756Z,97776.00
2023-04-27T15:09:07.251Z,97779.53
2023-04-27T15:13:11.297Z,97781.03
2023-04-27T15:17:15.913Z,97776.88
2023-04-27T15:21:19.883Z,97781.75
2023-04-27T15:25:23.150Z,97777.72
2023-04-27T15:29:27.135Z,97775.50
2023-04-27T15:33:33.014Z,97779.78
2023-04-27T15:37:38.081Z,97771.81
2023-04-27T15:41:41.826Z,97775.06
2023-04-27T15:45:45.283Z,97770.56
2023-04-27T15:49:57.315Z,97768.56
2023-04-27T15:54:02.125Z,97758.69
2023-04-27T15:58:05.264Z,97762.69
2023-04-27T16:02:09.165Z,97754.34
2023-04-27T16:06:13.711Z,97754.56
2023-04-27T16:10:17.196Z,97750.41
2023-04-27T16:14:20.550Z,97750.81
2023-04-27T16:18:23.800Z,97752.88
2023-04-27T16:22:29.270Z,97750.47
2023-04-27T16:26:33.204Z,97752.31
2023-04-27T16:30:38.450Z,97755.75
2023-04-27T16:34:42.184Z,97755.28
2023-04-27T16:38:46.725Z,97750.31
2023-04-27T16:42:53.999Z,97753.28
2023-04-27T16:46:57.110Z,97754.88
2023-04-27T16:51:00.418Z,97756.63
2023-04-27T16:55:07.717Z,97751.47
2023-04-27T16:59:13.192Z,97750.34
2023-04-27T17:03:16.793Z,97758.78
2023-04-27T17:07:21.144Z,97762.50
2023-04-27T17:11:26.644Z,97759.09
2023-04-27T17:15:30.579Z,97761.94
2023-04-27T17:19:34.055Z,97758.75
2023-04-27T17:23:40.061Z,97755.94
2023-04-27T17:27:44.785Z,97760.03
2023-04-27T17:31:48.641Z,97764.53
2023-04-27T17:35:51.710Z,97773.41
2023-04-27T17:39:55.280Z,97772.19
2023-04-27T17:44:12.629Z,97765.06
2023-04-27T17:48:18.486Z,97765.56
2023-04-27T17:52:21.714Z,97764.66
2023-04-27T17:56:25.447Z,97762.91
2023-04-27T18:00:30.653Z,97762.72
2023-04-27T18:04:36.526Z,97762.78
2023-04-27T18:08:39.642Z,97768.97
2023-04-27T18:12:43.222Z,97768.19
2023-04-27T18:16:47.659Z,97773.66
2023-04-27T18:20:53.040Z,97783.53
2023-04-27T18:24:56.105Z,97782.09
2023-04-27T18:29:00.223Z,97786.44
2023-04-27T18:33:05.181Z,97787.44
2023-04-27T18:37:10.711Z,97791.88
2023-04-27T18:41:13.630Z,97796.59
2023-04-27T18:45:17.973Z,97795.69
2023-04-27T18:49:22.773Z,97806.84
2023-04-27T18:53:26.714Z,97806.69
2023-04-27T18:57:29.841Z,97810.66
2023-04-27T19:01:33.986Z,97806.06
2023-04-27T19:05:40.842Z,97797.44
2023-04-27T19:09:44.609Z,97821.81
2023-04-27T19:13:47.635Z,97816.63
2023-04-27T19:18:02.233Z,97810.63
2023-04-27T19:22:14.086Z,97815.84
2023-04-27T19:26:18.876Z,97821.09
2023-04-27T19:30:22.408Z,97823.75
2023-04-27T19:34:28.111Z,97825.38
2023-04-27T19:38:33.054Z,97823.44
2023-04-27T19:42:36.635Z,97832.56
2023-04-27T19:46:39.963Z,97829.97
2023-04-27T19:50:43.614Z,97835.34
2023-04-27T19:54:52.414Z,97841.56
2023-04-27T19:58:57.155Z,97839.91
2023-04-27T20:03:00.566Z,97832.09
2023-04-27T20:07:05.883Z,97841.75
2023-04-27T20:11:12.527Z,97832.25
2023-04-27T20:15:15.813Z,97839.78
2023-04-27T20:19:19.752Z,97839.78
2023-04-27T20:23:23.274Z,97840.78
2023-04-27T20:27:27.874Z,97853.00
2023-04-27T20:31:33.037Z,97852.63
2023-04-27T20:35:37.382Z,97849.53
2023-04-27T20:39:41.546Z,97849.69
2023-04-27T20:43:46.255Z,97854.91
2023-04-27T20:47:50.966Z,97852.78
2023-04-27T20:51:55.814Z,97858.81
2023-04-27T20:55:59.786Z,97851.47
2023-04-27T21:00:05.351Z,97852.13
2023-04-27T21:04:09.298Z,97851.31
2023-04-27T21:08:12.812Z,97861.28
2023-04-27T21:12:18.144Z,97859.94
2023-04-27T21:16:22.789Z,97849.00
2023-04-27T21:20:26.557Z,97845.38
2023-04-27T21:24:30.414Z,97843.34
2023-04-27T21:28:33.643Z,97840.22
2023-04-27T21:32:38.647Z,97839.53
2023-04-27T21:36:41.997Z,97842.44
2023-04-27T21:40:45.560Z,97834.91
2023-04-27T21:44:48.669Z,97838.09
2023-04-27T21:48:53.603Z,97832.47
2023-04-27T21:52:56.707Z,97826.81
2023-04-27T21:57:00.028Z,97824.44
2023-04-27T22:01:03.112Z,97825.41
2023-04-27T22:05:08.218Z,97824.66
2023-04-27T22:09:12.474Z,97826.53
2023-04-27T22:13:19.389Z,97827.59
2023-04-27T22:17:23.894Z,97839.03
2023-04-27T22:21:29.309Z,97828.56
2023-04-27T22:25:32.868Z,97829.16
2023-04-27T22:29:36.403Z,97833.31
2023-04-27T22:33:39.423Z,97831.31
2023-04-27T22:37:45.798Z,97824.41
2023-04-27T22:41:49.116Z,97828.53
2023-04-27T22:45:52.388Z,97826.16
2023-04-27T22:49:55.864Z,97831.72
2023-04-27T22:54:00.821Z,97831.09
2023-04-27T22:58:04.201Z,97832.88
2023-04-27T23:02:08.322Z,97833.72
2023-04-27T23:06:14.378Z,97820.94
2023-04-27T23:10:19.437Z,97825.06
2023-04-27T23:14:22.829Z,97828.66
2023-04-27T23:18:26.825Z,97825.00
2023-04-27T23:22:30.083Z,97823.78
2023-04-27T23:26:34.985Z,97814.25
2023-04-27T23:30:38.160Z,97815.91
2023-04-27T23:34:41.729Z,97810.47
2023-04-27T23:38:44.752Z,97811.28
2023-04-27T23:42:52.400Z,97804.75
2023-04-27T23:46:55.972Z,97810.22
2023-04-27T23:51:03.700Z,97805.59
2023-04-27T23:55:08.502Z,97801.22
2023-04-27T23:59:15.419Z,97803.25
